Portada
METAR-TAF:

METAR-TAF

Aeropuertos :

Victoria Falls, Zimbabue

latitud: 18-06S, longitud: 025-51E, altitud: 1061 m

Observación

El informe se hizo hace 23 minutos, a las 10:00 UTC
Viento 12 kt del este
Temperatura 25°C
Humedad 26%
Presión 1023 hPa
Visibilidad 10 km o más
sin nubes por debajo de 1500 m y sin presencia de cumulonimbus.

METAR: FVFA 191000Z 10012KT CAVOK 25/04 Q1023 NOSIG

Hora: 12:23 (10:23 UTC)


TAF: falta

Observaciones y pronósticos meteorológicos de más de 4000 aeropuertos (mensajes METAR y TAF).

Los puntos amarillos y rojos representan las estaciones disponibles.

Ponga el ratón en el punto deseado para ver el nombre de la estación.

Haga clic para ver las observaciones y los pronósticos meteorológicos.

Para cambiar el mapa : haga clic en los botones verdes con una cruz de color negro para hacer un zoom, en el botón verde con un guión para alejar o en las flechas verdes para mapas adyacentes.


METAR-TAF: